Time;durP1;ratioP1;P1;durP2;ratioP2;P2;SDS_P1;SDS_P2;PMS_P1;PMS_P2;Temp;Humidity;BMP_temperature;BMP_pressure;BME280_temperature;BME280_humidity;BME280_pressure;Samples;Min_cycle;Max_cycle;Signal;HPM_P1;HPM_P2
2021/03/23 00:00:59;;;;;;;0.97;0.97;;;9.60;99.90;;;;;;20530770;28;20246;-71
2021/03/23 00:11:14;;;;;;;1.03;0.83;;;9.70;99.90;;;;;;20524899;28;20717;-71
2021/03/23 00:21:17;;;;;;;0.30;0.30;;;9.80;99.90;;;;;;20493799;28;20243;-71
2021/03/23 00:31:22;;;;;;;0.20;0.10;;;9.80;99.90;;;;;;20455595;28;20226;-70
2021/03/23 00:41:35;;;;;;;1.53;0.63;;;9.80;99.90;;;;;;20531201;28;20578;-71
2021/03/23 00:51:41;;;;;;;2.97;1.43;;;9.90;99.90;;;;;;20540081;28;20665;-70
2021/03/23 01:01:44;;;;;;;0.90;0.90;;;9.90;99.90;;;;;;20683242;23;20341;-73
2021/03/23 01:11:57;;;;;;;0.73;0.73;;;9.80;99.90;;;;;;20543969;28;20565;-73
2021/03/23 01:22:03;;;;;;;0.63;0.63;;;9.60;99.90;;;;;;20541141;28;20203;-74
2021/03/23 01:32:24;;;;;;;0.40;0.40;;;9.30;99.90;;;;;;21094788;27;20517;-73
2021/03/23 01:42:40;;;;;;;0.30;0.30;;;9.10;99.90;;;;;;21092946;28;20194;-73
2021/03/23 01:53:03;;;;;;;;;;;;;;;;;;;;;
2021/03/23 02:03:07;;;;;;;0.60;0.43;;;8.80;99.90;;;;;;21013029;22;20956;-71
2021/03/23 02:13:11;;;;;;;0.33;0.30;;;9.10;99.90;;;;;;20841266;28;20278;-70
2021/03/23 02:23:24;;;;;;;8.80;0.70;;;8.70;99.90;;;;;;20842428;28;20252;-70
2021/03/23 02:33:27;;;;;;;0.87;0.40;;;8.60;99.90;;;;;;20842013;28;20197;-70
2021/03/23 02:43:30;;;;;;;3.33;0.37;;;8.70;99.90;;;;;;20786235;28;20230;-70
2021/03/23 02:53:33;;;;;;;3.00;1.03;;;8.80;99.90;;;;;;20785994;28;20520;-70
2021/03/23 03:03:37;;;;;;;0.57;0.50;;;8.50;99.90;;;;;;20808670;22;20237;-72
2021/03/23 03:13:42;;;;;;;4.23;1.20;;;8.30;99.90;;;;;;20765698;28;20513;-72
2021/03/23 03:23:48;;;;;;;0.37;0.37;;;8.30;99.90;;;;;;20763958;28;20670;-73
2021/03/23 03:33:52;;;;;;;0.30;0.30;;;9.00;99.90;;;;;;20764560;28;20191;-75
2021/03/23 03:43:57;;;;;;;0.97;0.83;;;8.90;99.90;;;;;;20778899;28;20228;-73
2021/03/23 03:54:04;;;;;;;0.73;0.73;;;8.90;99.90;;;;;;20779508;28;20217;-71
2021/03/23 04:04:08;;;;;;;0.20;0.10;;;8.90;99.90;;;;;;20752564;22;20243;-69
2021/03/23 04:14:14;;;;;;;3.00;1.67;;;9.00;99.90;;;;;;20698293;28;20654;-70
2021/03/23 04:24:18;;;;;;;0.37;0.37;;;9.10;99.90;;;;;;20696450;28;20827;-68
2021/03/23 04:34:21;;;;;;;0.53;0.53;;;9.10;99.90;;;;;;20695888;28;20514;-69
2021/03/23 04:44:38;;;;;;;0.63;0.40;;;8.90;99.90;;;;;;20696599;28;20238;-70
2021/03/23 04:54:41;;;;;;;1.33;1.23;;;8.80;99.90;;;;;;20695039;28;20349;-69
2021/03/23 05:04:45;;;;;;;0.43;0.30;;;8.70;99.90;;;;;;20752124;22;21040;-71
2021/03/23 05:14:59;;;;;;;0.87;0.70;;;8.60;99.90;;;;;;20758578;28;20415;-72
2021/03/23 05:25:04;;;;;;;4.50;1.57;;;8.70;99.90;;;;;;20773305;28;20218;-76
2021/03/23 05:35:09;;;;;;;0.63;0.60;;;9.00;99.90;;;;;;20772205;28;20194;-74
2021/03/23 05:45:36;;;;;;;1.33;1.10;;;8.80;99.90;;;;;;20774546;28;20553;-72
2021/03/23 05:55:42;;;;;;;1.27;0.70;;;8.80;99.90;;;;;;20773424;28;20304;-70
2021/03/23 06:05:48;;;;;;;0.80;0.63;;;8.80;99.90;;;;;;20772025;28;20234;-69
2021/03/23 06:16:05;;;;;;;3.13;1.47;;;8.60;99.90;;;;;;20784267;28;20214;-71
2021/03/23 06:26:17;;;;;;;3.30;1.13;;;8.80;99.90;;;;;;20787158;28;20226;-73
2021/03/23 06:36:40;;;;;;;1.13;1.13;;;8.90;99.90;;;;;;20771952;28;20202;-70
2021/03/23 06:46:49;;;;;;;0.83;0.83;;;9.00;99.90;;;;;;20784942;28;20640;-70
2021/03/23 06:57:00;;;;;;;1.57;0.87;;;9.40;99.90;;;;;;20784156;28;20186;-71
2021/03/23 07:17:58;;;;;;;0.87;0.83;;;10.10;99.90;;;;;;20869776;22;20237;-68
2021/03/23 07:28:35;;;;;;;15.47;1.77;;;10.60;99.90;;;;;;20864718;28;21013;-69
2021/03/23 07:49:58;;;;;;;0.87;0.57;;;11.50;99.90;;;;;;20599226;28;20605;-70
2021/03/23 08:00:40;;;;;;;5.70;1.77;;;12.20;99.90;;;;;;20610255;28;20273;-72
2021/03/23 08:11:19;;;;;;;1.80;1.50;;;12.70;99.90;;;;;;20699168;28;20235;-72
2021/03/23 08:32:19;;;;;;;1.60;0.83;;;12.90;99.90;;;;;;20942524;28;20315;-73
2021/03/23 08:42:25;;;;;;;0.30;0.30;;;12.90;99.90;;;;;;20941509;28;20207;-73
2021/03/23 08:52:41;;;;;;;19.83;1.47;;;13.00;99.90;;;;;;20934571;28;20657;-74
2021/03/23 09:02:45;;;;;;;0.73;0.73;;;13.20;99.90;;;;;;20934573;28;20759;-72
2021/03/23 09:12:49;;;;;;;3.13;2.37;;;13.40;99.90;;;;;;20919627;28;20232;-68
2021/03/23 09:22:52;;;;;;;1.63;1.53;;;13.70;99.90;;;;;;20934571;28;20189;-68
2021/03/23 09:33:16;;;;;;;0.60;0.60;;;14.00;99.90;;;;;;20932382;28;20579;-69
2021/03/23 09:43:33;;;;;;;0.37;0.37;;;14.10;99.90;;;;;;20931059;28;20231;-73
2021/03/23 09:53:38;;;;;;;0.97;0.97;;;14.60;99.90;;;;;;20943735;28;20211;-73
2021/03/23 10:03:42;;;;;;;0.70;0.70;;;14.60;99.90;;;;;;20933582;28;21370;-72
2021/03/23 10:13:49;;;;;;;0.20;0.17;;;14.90;99.90;;;;;;20938490;28;20297;-71
2021/03/23 10:23:56;;;;;;;0.40;0.40;;;15.20;99.90;;;;;;20926828;28;20354;-72
2021/03/23 10:34:08;;;;;;;0.70;0.70;;;15.70;99.90;;;;;;20946898;28;20232;-73
2021/03/23 10:44:21;;;;;;;0.37;0.37;;;16.20;99.90;;;;;;20930867;28;21148;-72
2021/03/23 10:54:33;;;;;;;0.50;0.47;;;16.60;99.90;;;;;;20949272;28;20719;-75
2021/03/23 11:04:38;;;;;;;10.00;0.47;;;17.50;99.90;;;;;;20928332;28;20362;-72
2021/03/23 11:14:41;;;;;;;1.97;1.13;;;17.10;99.90;;;;;;20943269;28;20240;-72
2021/03/23 11:24:44;;;;;;;0.50;0.50;;;18.10;99.90;;;;;;20942174;28;20681;-71
2021/03/23 11:34:48;;;;;;;0.93;0.83;;;18.50;99.90;;;;;;20943432;28;20193;-72
2021/03/23 11:44:52;;;;;;;4.33;1.53;;;19.10;99.90;;;;;;20942163;28;20220;-67
2021/03/23 11:55:03;;;;;;;4.10;0.93;;;19.90;99.90;;;;;;20945540;28;20293;-75
2021/03/23 12:05:13;;;;;;;0.93;0.83;;;20.40;99.90;;;;;;20940503;28;20247;-74
2021/03/23 12:15:23;;;;;;;0.50;0.40;;;20.70;99.90;;;;;;20938969;28;20386;-73
2021/03/23 12:25:26;;;;;;;0.87;0.73;;;21.30;99.90;;;;;;20919344;28;20215;-74
2021/03/23 12:35:30;;;;;;;0.63;0.50;;;21.20;99.90;;;;;;20932115;28;20227;-74
2021/03/23 12:45:39;;;;;;;1.47;1.37;;;21.40;99.90;;;;;;20947987;28;20212;-75
2021/03/23 12:55:45;;;;;;;0.77;0.37;;;21.70;99.90;;;;;;20984703;28;20647;-77
2021/03/23 13:05:50;;;;;;;3.00;1.43;;;21.50;99.90;;;;;;20933247;28;20708;-75
2021/03/23 13:15:55;;;;;;;1.87;1.10;;;22.50;99.90;;;;;;20936111;28;20677;-75
2021/03/23 13:26:02;;;;;;;2.93;2.00;;;22.50;99.90;;;;;;20931269;28;20220;-74
2021/03/23 13:36:32;;;;;;;3.30;1.50;;;22.70;99.90;;;;;;20933374;28;20201;-74
2021/03/23 13:46:39;;;;;;;1.57;0.87;;;22.60;99.90;;;;;;20932542;28;20254;-76
2021/03/23 13:56:43;;;;;;;1.10;0.90;;;22.70;99.90;;;;;;20936880;28;20197;-79
2021/03/23 14:07:16;;;;;;;1.13;0.67;;;22.60;99.90;;;;;;20917684;28;20228;-71
2021/03/23 14:17:33;;;;;;;1.90;1.40;;;22.90;99.90;;;;;;20935796;28;20610;-77
2021/03/23 14:27:40;;;;;;;1.73;1.37;;;23.40;99.90;;;;;;20936375;28;20224;-76
2021/03/23 14:37:47;;;;;;;2.37;1.50;;;23.00;99.90;;;;;;20945249;28;20618;-75
2021/03/23 14:47:50;;;;;;;2.13;1.87;;;23.40;99.90;;;;;;20948219;28;20243;-76
2021/03/23 14:57:54;;;;;;;4.90;3.13;;;23.10;99.90;;;;;;20949450;28;20193;-77
2021/03/23 15:07:57;;;;;;;3.00;2.23;;;22.80;99.90;;;;;;20994547;28;20656;-74
2021/03/23 15:18:02;;;;;;;1.97;1.87;;;22.70;99.90;;;;;;20947598;28;20964;-72
2021/03/23 15:28:06;;;;;;;2.00;1.77;;;22.80;99.90;;;;;;20945730;28;20634;-74
2021/03/23 15:38:17;;;;;;;3.10;1.57;;;22.90;99.90;;;;;;20950238;28;20506;-70
2021/03/23 15:48:19;;;;;;;3.40;1.87;;;22.80;99.90;;;;;;20943668;28;20259;-74
2021/03/23 15:58:24;;;;;;;2.17;1.80;;;23.10;99.90;;;;;;20942812;28;20197;-74
2021/03/23 16:08:31;;;;;;;5.13;3.00;;;23.00;99.90;;;;;;20936506;28;20235;-77
2021/03/23 16:18:34;;;;;;;3.63;2.03;;;21.70;99.90;;;;;;20897992;28;20201;-73
2021/03/23 16:28:40;;;;;;;2.60;1.93;;;19.50;99.90;;;;;;20886007;28;20239;-75
2021/03/23 16:38:44;;;;;;;2.77;1.00;;;18.70;99.90;;;;;;20933846;28;20274;-73
2021/03/23 16:49:07;;;;;;;3.90;1.93;;;18.00;99.90;;;;;;20934356;28;20235;-73
2021/03/23 16:59:20;;;;;;;;;;;;;;;;;;;;;
2021/03/23 17:31:21;;;;;;;1.60;0.80;;;16.60;99.90;;;;;;20628721;23;20244;-75
2021/03/23 17:41:34;;;;;;;0.63;0.60;;;15.70;99.90;;;;;;20630362;23;20383;-76
2021/03/23 17:52:15;;;;;;;1.67;0.93;;;15.30;99.90;;;;;;20688359;28;20226;-77
2021/03/23 18:02:20;;;;;;;1.90;1.50;;;14.90;99.90;;;;;;20624364;23;20677;-73
2021/03/23 18:12:26;;;;;;;1.17;0.60;;;14.50;99.90;;;;;;20651795;28;20393;-75
2021/03/23 18:33:01;;;;;;;3.03;0.40;;;13.70;99.90;;;;;;20452648;28;20315;-74
2021/03/23 18:43:12;;;;;;;16.53;1.07;;;13.60;99.90;;;;;;20450870;29;20205;-75
2021/03/23 18:53:16;;;;;;;0.70;0.40;;;13.50;99.90;;;;;;20438028;29;20349;-75
2021/03/23 19:03:22;;;;;;;3.67;1.77;;;13.50;99.90;;;;;;20488892;28;20228;-77
2021/03/23 19:13:28;;;;;;;1.60;0.97;;;13.30;99.90;;;;;;20677569;28;20253;-76
2021/03/23 19:23:33;;;;;;;3.30;1.13;;;13.30;99.90;;;;;;20742234;28;20536;-72
2021/03/23 19:33:40;;;;;;;8.43;1.13;;;13.20;99.90;;;;;;20694971;28;20706;-75
2021/03/23 19:43:45;;;;;;;9.23;1.07;;;12.90;99.90;;;;;;20778141;28;20799;-75
2021/03/23 19:53:49;;;;;;;1.80;0.83;;;12.80;99.90;;;;;;20723954;28;20226;-76
2021/03/23 20:03:52;;;;;;;0.70;0.70;;;12.50;99.90;;;;;;20694241;28;20562;-75
2021/03/23 20:13:55;;;;;;;0.23;0.23;;;12.00;99.90;;;;;;20692400;28;20218;-74
2021/03/23 20:23:58;;;;;;;1.23;1.13;;;11.80;99.90;;;;;;20735764;28;20210;-76
2021/03/23 20:34:02;;;;;;;0.73;0.73;;;11.40;99.90;;;;;;20749111;28;20702;-76
2021/03/23 20:44:06;;;;;;;0.30;0.30;;;11.10;99.90;;;;;;20676599;28;20199;-76
2021/03/23 20:54:10;;;;;;;0.97;0.97;;;11.20;99.90;;;;;;20689325;28;20200;-76
2021/03/23 21:04:13;;;;;;;1.13;0.50;;;11.20;99.90;;;;;;20691634;28;20633;-76
2021/03/23 21:14:18;;;;;;;1.83;0.90;;;11.10;99.90;;;;;;20690395;28;20191;-77
2021/03/23 21:24:20;;;;;;;0.30;0.30;;;10.90;99.90;;;;;;20692929;28;20419;-74
2021/03/23 21:34:24;;;;;;;2.10;1.90;;;10.90;99.90;;;;;;20717787;28;20193;-76
2021/03/23 21:44:26;;;;;;;0.87;0.87;;;11.10;99.90;;;;;;20728442;28;20199;-75
2021/03/23 21:54:30;;;;;;;1.23;1.13;;;11.00;99.90;;;;;;20704225;28;20194;-73
2021/03/23 22:04:33;;;;;;;1.20;0.93;;;10.80;99.90;;;;;;20686926;28;20226;-74
2021/03/23 22:14:36;;;;;;;1.40;1.00;;;10.90;99.90;;;;;;20688578;28;20191;-75
2021/03/23 22:24:47;;;;;;;1.50;1.40;;;11.10;99.90;;;;;;20704578;28;20448;-73
2021/03/23 22:34:50;;;;;;;1.20;1.10;;;11.20;99.90;;;;;;20684644;28;20671;-74
2021/03/23 22:44:53;;;;;;;2.07;1.90;;;11.20;99.90;;;;;;20702203;28;20606;-73
2021/03/23 22:54:57;;;;;;;2.90;1.40;;;11.20;99.90;;;;;;20698515;28;20219;-73
2021/03/23 23:04:59;;;;;;;0.40;0.40;;;11.20;99.90;;;;;;20701371;28;20250;-72
2021/03/23 23:15:05;;;;;;;0.73;0.73;;;11.10;99.90;;;;;;20698726;28;20636;-73
2021/03/23 23:25:10;;;;;;;4.73;1.37;;;11.20;99.90;;;;;;20769824;28;20934;-72
2021/03/23 23:35:18;;;;;;;4.57;1.50;;;11.30;99.90;;;;;;20763030;28;20194;-73
2021/03/23 23:45:23;;;;;;;1.37;1.27;;;11.30;99.90;;;;;;20762600;28;20230;-74
2021/03/23 23:55:27;;;;;;;1.03;0.60;;;11.30;99.90;;;;;;20762488;28;20218;-74
